Time;durP1;ratioP1;P1;durP2;ratioP2;P2;SDS_P1;SDS_P2;PMS_P1;PMS_P2;Temp;Humidity;BMP_temperature;BMP_pressure;BME280_temperature;BME280_humidity;BME280_pressure;Samples;Min_cycle;Max_cycle;Signal;HPM_P1;HPM_P2
2023/03/22 00:00:45;;;;;;;;;;;;;;;15.04;73.53;100568.25;1267941;23;672;-66
2023/03/22 00:01:36;;;;;;;;;;;;;;;15.03;73.35;100558.50;1266924;23;677;-66
2023/03/22 00:02:29;;;;;;;;;;;;;;;15.03;73.02;100562.03;1263965;23;657;-66
2023/03/22 00:03:19;;;;;;;;;;;;;;;15.04;73.50;100563.75;1267593;23;685;-66
2023/03/22 00:04:10;;;;;;;;;;;;;;;15.04;73.21;100554.84;1267088;23;633;-66
2023/03/22 00:05:00;;;;;;;;;;;;;;;15.04;72.92;100554.84;1266637;23;637;-66
2023/03/22 00:05:51;;;;;;;;;;;;;;;15.03;73.37;100561.19;1263547;23;626;-65
2023/03/22 00:06:41;;;;;;;;;;;;;;;15.03;73.46;100545.94;1267100;23;668;-66
2023/03/22 00:07:32;;;;;;;;;;;;;;;15.02;73.18;100551.44;1266989;23;669;-65
2023/03/22 00:08:22;;;;;;;;;;;;;;;15.00;73.13;100546.22;1266993;23;664;-65
2023/03/22 00:09:13;;;;;;;;;;;;;;;15.00;73.37;100548.88;1272681;23;664;-66
2023/03/22 00:10:03;;;;;;;;;;;;;;;15.01;73.08;100547.91;1269976;23;642;-65
2023/03/22 00:10:54;;;;;;;;;;;;;;;15.00;73.33;100543.53;1264692;23;657;-66
2023/03/22 00:11:45;;;;;;;;;;;;;;;14.99;73.18;100540.97;1267832;23;636;-66
2023/03/22 00:12:35;;;;;;;;;;;;;;;15.00;73.57;100538.16;1264296;23;602;-66
2023/03/22 00:13:25;;;;;;;;;;;;;;;15.01;73.13;100547.06;1266741;23;707;-66
2023/03/22 00:14:16;;;;;;;;;;;;;;;15.00;73.00;100537.31;1266664;23;862;-66
2023/03/22 00:15:06;;;;;;;;;;;;;;;14.99;73.27;100540.97;1272657;23;622;-66
2023/03/22 00:15:58;;;;;;;;;;;;;;;14.99;73.10;100543.66;1270379;23;674;-66
2023/03/22 00:16:49;;;;;;;;;;;;;;;14.98;73.38;100544.63;1263283;23;674;-66
2023/03/22 00:17:40;;;;;;;;;;;;;;;14.97;73.55;100540.25;1266913;23;630;-66
2023/03/22 00:18:31;;;;;;;;;;;;;;;14.97;73.39;100542.94;1267790;23;601;-66
2023/03/22 00:19:21;;;;;;;;;;;;;;;14.97;73.39;100540.25;1267114;23;657;-66
2023/03/22 00:20:12;;;;;;;;;;;;;;;14.97;73.33;100537.56;1266847;23;774;-66
2023/03/22 00:21:02;;;;;;;;;;;;;;;14.96;73.27;100533.19;1267025;23;805;-66
2023/03/22 00:21:53;;;;;;;;;;;;;;;14.96;73.47;100533.19;1266855;23;704;-65
2023/03/22 00:22:43;;;;;;;;;;;;;;;14.96;73.46;100533.19;1267031;23;653;-66
2023/03/22 00:23:33;;;;;;;;;;;;;;;14.93;73.15;100528.94;1266825;23;633;-66
2023/03/22 00:24:24;;;;;;;;;;;;;;;14.93;73.21;100536.97;1266985;23;628;-66
2023/03/22 00:25:14;;;;;;;;;;;;;;;14.94;73.02;100539.53;1266819;23;669;-66
2023/03/22 00:26:05;;;;;;;;;;;;;;;14.95;73.29;100532.34;1266880;23;613;-66
2023/03/22 00:26:55;;;;;;;;;;;;;;;14.96;73.00;100530.50;1266274;23;613;-65
2023/03/22 00:27:46;;;;;;;;;;;;;;;14.96;73.26;100530.50;1266934;23;711;-66
2023/03/22 00:28:36;;;;;;;;;;;;;;;14.96;73.03;100530.50;1266382;23;657;-66
2023/03/22 00:29:27;;;;;;;;;;;;;;;14.97;73.47;100518.78;1266840;23;668;-66
2023/03/22 00:30:17;;;;;;;;;;;;;;;14.97;73.20;100529.53;1266751;23;669;-66
2023/03/22 00:31:07;;;;;;;;;;;;;;;14.96;73.02;100523.31;1266773;23;1881;-66
2023/03/22 00:31:58;;;;;;;;;;;;;;;14.95;73.14;100526.97;1266845;23;555;-66
2023/03/22 00:32:48;;;;;;;;;;;;;;;14.96;73.43;100528.66;1266957;23;633;-66
2023/03/22 00:33:39;;;;;;;;;;;;;;;14.97;73.49;100524.16;1266644;23;631;-66
2023/03/22 00:34:30;;;;;;;;;;;;;;;14.95;73.01;100518.91;1264326;23;681;-66
2023/03/22 00:35:20;;;;;;;;;;;;;;;14.94;73.29;100523.44;1268286;23;693;-66
2023/03/22 00:36:11;;;;;;;;;;;;;;;14.94;73.51;100519.91;1267366;23;714;-64
2023/03/22 00:37:01;;;;;;;;;;;;;;;14.94;73.63;100518.06;1267243;23;625;-66
2023/03/22 00:37:52;;;;;;;;;;;;;;;14.94;73.35;100518.06;1267183;23;598;-66
2023/03/22 00:38:42;;;;;;;;;;;;;;;14.94;73.46;100518.06;1267299;23;735;-66
2023/03/22 00:39:32;;;;;;;;;;;;;;;14.93;73.66;100524.41;1267650;23;602;-66
2023/03/22 00:40:23;;;;;;;;;;;;;;;14.93;73.00;100519.06;1267532;23;1016;-66
2023/03/22 00:41:13;;;;;;;;;;;;;;;14.95;73.33;100521.59;1267494;23;615;-66
2023/03/22 00:42:05;;;;;;;;;;;;;;;14.95;73.51;100513.56;1267596;23;652;-66
2023/03/22 00:42:55;;;;;;;;;;;;;;;14.93;73.25;100519.06;1268249;23;681;-66
2023/03/22 00:43:45;;;;;;;;;;;;;;;14.94;73.21;100515.38;1267593;23;651;-66
2023/03/22 00:44:36;;;;;;;;;;;;;;;14.93;73.22;100518.19;1273247;23;625;-66
2023/03/22 00:45:26;;;;;;;;;;;;;;;14.93;73.44;100510.16;1270647;23;680;-66
2023/03/22 00:46:17;;;;;;;;;;;;;;;14.93;73.47;100513.69;1265442;23;669;-66
2023/03/22 00:47:07;;;;;;;;;;;;;;;14.92;73.36;100506.63;1267448;23;604;-65
2023/03/22 00:47:58;;;;;;;;;;;;;;;14.92;73.46;100511.97;1267426;23;613;-66
2023/03/22 00:48:48;;;;;;;;;;;;;;;14.92;73.43;100501.25;1267499;23;672;-66
2023/03/22 00:49:38;;;;;;;;;;;;;;;14.93;73.24;100507.47;1267669;23;593;-66
2023/03/22 00:50:29;;;;;;;;;;;;;;;14.93;73.46;100502.09;1267604;23;684;-66
2023/03/22 00:51:19;;;;;;;;;;;;;;;14.93;73.43;100505.63;1267404;23;1913;-66
2023/03/22 00:52:10;;;;;;;;;;;;;;;14.92;73.26;100506.63;1267614;23;668;-66
2023/03/22 00:53:00;;;;;;;;;;;;;;;14.91;73.44;100499.56;1267449;23;649;-66
2023/03/22 00:53:52;;;;;;;;;;;;;;;14.91;73.36;100496.88;1267581;23;640;-66
2023/03/22 00:54:43;;;;;;;;;;;;;;;14.92;73.42;100500.41;1264515;23;626;-66
2023/03/22 00:55:33;;;;;;;;;;;;;;;14.92;73.21;100495.88;1267480;23;629;-65
2023/03/22 00:56:27;;;;;;;;;;;;;;;14.92;73.39;100497.72;1267543;23;691;-66
2023/03/22 00:57:18;;;;;;;;;;;;;;;14.91;73.32;100493.34;1268287;23;700;-66
2023/03/22 00:58:08;;;;;;;;;;;;;;;14.91;73.39;100498.69;1267413;23;609;-66
2023/03/22 00:58:59;;;;;;;;;;;;;;;14.90;73.20;100492.47;1267509;23;657;-66
2023/03/22 00:59:51;;;;;;;;;;;;;;;14.90;73.26;100487.13;1268619;23;624;-66
2023/03/22 01:00:43;;;;;;;;;;;;;;;14.89;73.35;100488.09;1268410;23;625;-66
2023/03/22 01:01:34;;;;;;;;;;;;;;;14.91;73.12;100490.66;1264471;23;641;-65
2023/03/22 01:02:28;;;;;;;;;;;;;;;14.91;73.03;100493.34;1267493;23;660;-66
2023/03/22 01:03:20;;;;;;;;;;;;;;;14.91;73.45;100493.34;1268230;23;614;-66
2023/03/22 01:04:16;;;;;;;;;;;;;;;14.90;73.31;100487.13;1268384;23;654;-66
2023/03/22 01:05:07;;;;;;;;;;;;;;;14.90;73.62;100492.47;1264399;23;665;-66
2023/03/22 01:05:57;;;;;;;;;;;;;;;14.89;73.12;100485.41;1267609;23;616;-66
2023/03/22 01:06:47;;;;;;;;;;;;;;;14.89;73.21;100480.06;1267548;23;614;-66
2023/03/22 01:07:40;;;;;;;;;;;;;;;14.90;73.12;100487.13;1267578;23;645;-68
2023/03/22 01:08:32;;;;;;;;;;;;;;;14.89;73.46;100487.25;1264274;23;653;-66
2023/03/22 01:09:22;;;;;;;;;;;;;;;14.88;73.70;100483.72;1268374;23;638;-66
2023/03/22 01:10:13;;;;;;;;;;;;;;;14.90;73.57;100475.53;1267526;23;585;-66
2023/03/22 01:11:03;;;;;;;;;;;;;;;14.89;73.53;100474.69;1267529;23;656;-66
2023/03/22 01:11:55;;;;;;;;;;;;;;;14.90;73.26;100480.91;1267494;23;764;-66
2023/03/22 01:12:46;;;;;;;;;;;;;;;14.88;73.41;100475.66;1265574;23;645;-66
2023/03/22 01:13:36;;;;;;;;;;;;;;;14.86;73.55;100468.78;1268401;23;605;-67
2023/03/22 01:14:27;;;;;;;;;;;;;;;14.87;73.29;100471.28;1267566;23;640;-67
2023/03/22 01:15:17;;;;;;;;;;;;;;;14.88;73.93;100473.00;1267336;23;629;-66
2023/03/22 01:16:07;;;;;;;;;;;;;;;14.87;73.44;100471.28;1267524;23;612;-66
2023/03/22 01:16:58;;;;;;;;;;;;;;;14.87;73.67;100471.28;1267570;23;627;-66
2023/03/22 01:17:48;;;;;;;;;;;;;;;14.88;73.46;100469.47;1267478;23;617;-67
2023/03/22 01:18:39;;;;;;;;;;;;;;;14.88;73.55;100464.94;1267522;23;645;-66
2023/03/22 01:19:30;;;;;;;;;;;;;;;14.87;73.38;100468.59;1268234;23;747;-66
2023/03/22 01:20:20;;;;;;;;;;;;;;;14.87;73.13;100463.25;1267446;23;680;-66
2023/03/22 01:21:10;;;;;;;;;;;;;;;14.89;73.41;100457.75;1267479;23;665;-67
2023/03/22 01:22:01;;;;;;;;;;;;;;;14.88;73.37;100462.25;1267525;23;652;-66
2023/03/22 01:22:51;;;;;;;;;;;;;;;14.86;73.52;100455.34;1273345;23;633;-66
2023/03/22 01:23:42;;;;;;;;;;;;;;;14.85;73.40;100457.19;1264837;23;653;-66
2023/03/22 01:24:32;;;;;;;;;;;;;;;14.85;73.33;100454.50;1261945;23;673;-66
2023/03/22 01:25:22;;;;;;;;;;;;;;;14.86;73.63;100444.63;1267512;23;645;-66
2023/03/22 01:26:13;;;;;;;;;;;;;;;14.86;73.62;100447.31;1267460;23;696;-66
2023/03/22 01:27:03;;;;;;;;;;;;;;;14.85;73.31;100443.78;1267382;23;636;-66
2023/03/22 01:27:54;;;;;;;;;;;;;;;14.84;73.62;100447.44;1267545;23;528;-66
2023/03/22 01:28:44;;;;;;;;;;;;;;;14.85;73.89;100448.28;1267398;23;621;-66
2023/03/22 01:29:35;;;;;;;;;;;;;;;14.83;73.74;100440.38;1267464;23;1009;-66
2023/03/22 01:30:25;;;;;;;;;;;;;;;14.82;73.69;100445.88;1267362;23;597;-66
2023/03/22 01:31:16;;;;;;;;;;;;;;;14.84;73.86;100443.91;1267294;23;1862;-66
2023/03/22 01:32:06;;;;;;;;;;;;;;;14.84;73.35;100443.91;1267494;23;653;-66
2023/03/22 01:32:56;;;;;;;;;;;;;;;14.85;73.55;100441.09;1267417;23;601;-66
2023/03/22 01:33:47;;;;;;;;;;;;;;;14.86;73.22;100442.78;1267204;23;684;-66
2023/03/22 01:34:37;;;;;;;;;;;;;;;14.88;73.66;100443.47;1267106;23;553;-66
2023/03/22 01:35:29;;;;;;;;;;;;;;;14.86;73.74;100444.63;1272974;23;688;-67
2023/03/22 01:36:19;;;;;;;;;;;;;;;14.86;73.58;100431.22;1270337;23;626;-66
2023/03/22 01:37:10;;;;;;;;;;;;;;;14.86;73.54;100433.91;1264277;23;637;-66
2023/03/22 01:38:00;;;;;;;;;;;;;;;14.87;73.72;100440.94;1267122;23;609;-66
2023/03/22 01:38:51;;;;;;;;;;;;;;;14.86;73.75;100433.91;1267179;23;620;-66
2023/03/22 01:39:41;;;;;;;;;;;;;;;14.86;73.75;100434.75;1266560;23;629;-66
2023/03/22 01:40:32;;;;;;;;;;;;;;;14.85;73.44;100419.63;1267019;23;644;-66
2023/03/22 01:41:22;;;;;;;;;;;;;;;14.84;73.37;100425.97;1267184;23;652;-66
2023/03/22 01:42:13;;;;;;;;;;;;;;;14.85;73.52;100418.78;1267035;23;636;-66
2023/03/22 01:43:03;;;;;;;;;;;;;;;14.85;73.59;100418.78;1268031;23;652;-66
2023/03/22 01:43:54;;;;;;;;;;;;;;;14.82;73.69;100425.25;1267198;23;644;-66
2023/03/22 01:44:45;;;;;;;;;;;;;;;14.82;73.55;100419.91;1267146;23;660;-66
2023/03/22 01:45:36;;;;;;;;;;;;;;;14.82;73.40;100419.91;1263974;23;630;-66
2023/03/22 01:46:26;;;;;;;;;;;;;;;14.83;73.40;100420.75;1267131;23;680;-66
2023/03/22 01:47:17;;;;;;;;;;;;;;;14.81;73.56;100418.19;1267008;23;671;-66
2023/03/22 01:48:07;;;;;;;;;;;;;;;14.82;73.11;100411.84;1267214;23;605;-66
2023/03/22 01:48:57;;;;;;;;;;;;;;;14.82;73.54;100411.84;1267064;23;610;-67
2023/03/22 01:49:48;;;;;;;;;;;;;;;14.79;73.70;100409.44;1267304;23;688;-66
2023/03/22 01:50:41;;;;;;;;;;;;;;;14.80;73.43;100400.41;1267066;23;668;-66
2023/03/22 01:51:31;;;;;;;;;;;;;;;14.79;73.65;100408.59;1263674;23;1960;-66
2023/03/22 01:52:22;;;;;;;;;;;;;;;14.80;73.88;100411.13;1267072;23;696;-66
2023/03/22 01:53:12;;;;;;;;;;;;;;;14.81;73.83;100401.25;1267114;23;641;-66
2023/03/22 01:54:03;;;;;;;;;;;;;;;14.80;73.59;100402.25;1266631;23;628;-66
2023/03/22 01:54:53;;;;;;;;;;;;;;;14.79;73.53;100396.03;1267141;23;614;-66
2023/03/22 01:55:44;;;;;;;;;;;;;;;14.80;73.44;100397.72;1267116;23;602;-67
2023/03/22 01:56:34;;;;;;;;;;;;;;;14.80;73.50;100392.38;1263625;23;653;-66
2023/03/22 01:57:25;;;;;;;;;;;;;;;14.79;73.62;100390.66;1267193;23;667;-66
2023/03/22 01:58:16;;;;;;;;;;;;;;;14.79;73.74;100387.97;1267882;23;645;-66
2023/03/22 01:59:07;;;;;;;;;;;;;;;14.79;73.57;100387.97;1267690;23;657;-66
2023/03/22 01:59:57;;;;;;;;;;;;;;;14.79;73.66;100387.13;1266973;23;610;-66
2023/03/22 02:00:48;;;;;;;;;;;;;;;14.78;73.57;100388.13;1267173;23;641;-66
2023/03/22 02:01:38;;;;;;;;;;;;;;;14.78;73.64;100385.44;1267102;23;645;-66
2023/03/22 02:02:29;;;;;;;;;;;;;;;14.78;73.24;100380.91;1272898;23;691;-66
2023/03/22 02:03:20;;;;;;;;;;;;;;;14.78;73.53;100380.91;1264309;23;649;-66
2023/03/22 02:04:14;;;;;;;;;;;;;;;14.79;73.28;100381.75;1261413;23;760;-66
2023/03/22 02:05:05;;;;;;;;;;;;;;;14.81;73.78;100377.13;1267283;23;665;-66
2023/03/22 02:05:55;;;;;;;;;;;;;;;14.81;73.71;100374.44;1267091;23;610;-66
2023/03/22 02:06:46;;;;;;;;;;;;;;;14.81;73.71;100375.28;1267126;23;656;-66
2023/03/22 02:07:36;;;;;;;;;;;;;;;14.81;73.62;100375.28;1267144;23;623;-66
2023/03/22 02:08:26;;;;;;;;;;;;;;;14.81;73.67;100374.44;1266615;23;665;-66
2023/03/22 02:09:20;;;;;;;;;;;;;;;14.81;73.70;100366.38;1267045;23;692;-66
2023/03/22 02:10:11;;;;;;;;;;;;;;;14.81;73.58;100369.91;1267929;23;653;-66
2023/03/22 02:11:01;;;;;;;;;;;;;;;14.79;73.59;100365.66;1267028;23;633;-66
2023/03/22 02:11:52;;;;;;;;;;;;;;;14.80;73.50;100372.72;1267168;23;688;-66
2023/03/22 02:12:42;;;;;;;;;;;;;;;14.80;73.31;100370.06;1267303;23;702;-67
2023/03/22 02:13:33;;;;;;;;;;;;;;;14.79;73.58;100365.66;1267116;23;629;-66
2023/03/22 02:14:24;;;;;;;;;;;;;;;14.79;73.55;100360.31;1267091;23;601;-66
2023/03/22 02:15:14;;;;;;;;;;;;;;;14.78;73.62;100366.66;1267970;23;657;-66
2023/03/22 02:16:05;;;;;;;;;;;;;;;14.78;73.91;100367.50;1272780;23;606;-66
2023/03/22 02:16:56;;;;;;;;;;;;;;;14.77;73.55;100357.75;1270453;23;677;-66
2023/03/22 02:17:50;;;;;;;;;;;;;;;14.78;73.62;100356.78;1264191;23;662;-66
2023/03/22 02:18:40;;;;;;;;;;;;;;;14.81;73.62;100353.81;1268037;23;633;-66
2023/03/22 02:19:30;;;;;;;;;;;;;;;14.82;73.42;100355.53;1267090;23;633;-66
2023/03/22 02:20:21;;;;;;;;;;;;;;;14.83;73.53;100351.00;1267086;23;641;-66
2023/03/22 02:21:11;;;;;;;;;;;;;;;14.83;73.79;100351.00;1267134;23;668;-66
2023/03/22 02:22:02;;;;;;;;;;;;;;;14.82;73.49;100343.94;1267176;23;755;-67
2023/03/22 02:22:52;;;;;;;;;;;;;;;14.82;73.69;100342.09;1266646;23;609;-66
2023/03/22 02:23:42;;;;;;;;;;;;;;;14.83;73.85;100351.00;1267038;23;625;-66
2023/03/22 02:24:33;;;;;;;;;;;;;;;14.80;73.66;100349.44;1267148;23;633;-66
2023/03/22 02:25:24;;;;;;;;;;;;;;;14.79;74.02;100347.75;1267878;23;630;-66
2023/03/22 02:26:14;;;;;;;;;;;;;;;14.80;73.78;100344.06;1267093;23;736;-66
2023/03/22 02:27:05;;;;;;;;;;;;;;;14.80;73.75;100346.75;1267024;23;680;-66
2023/03/22 02:27:55;;;;;;;;;;;;;;;14.79;73.55;100345.06;1265348;23;661;-66
2023/03/22 02:28:46;;;;;;;;;;;;;;;14.79;73.50;100345.06;1267078;23;652;-66
2023/03/22 02:29:36;;;;;;;;;;;;;;;14.77;73.49;100340.81;1267177;23;652;-66
2023/03/22 02:30:27;;;;;;;;;;;;;;;14.77;73.84;100333.63;1267136;23;556;-66
2023/03/22 02:31:17;;;;;;;;;;;;;;;14.78;73.69;100337.16;1266927;23;1888;-66
2023/03/22 02:32:08;;;;;;;;;;;;;;;14.77;73.83;100336.31;1267108;23;652;-66
2023/03/22 02:32:59;;;;;;;;;;;;;;;14.76;73.92;100331.91;1263794;23;638;-66
2023/03/22 02:34:02;;;;;;;;;;;;;;;14.77;73.78;100343.50;1053110;27;1409;-66
2023/03/22 02:34:53;;;;;;;;;;;;;;;14.79;73.73;100328.13;1051373;28;718;-67
2023/03/22 02:35:43;;;;;;;;;;;;;;;14.78;73.85;100338.00;1053113;28;668;-66
2023/03/22 02:36:34;;;;;;;;;;;;;;;14.77;73.61;100336.31;1052791;28;1032;-67
2023/03/22 02:37:24;;;;;;;;;;;;;;;14.78;73.63;100332.63;1051080;28;688;-67
2023/03/22 02:38:15;;;;;;;;;;;;;;;14.78;73.55;100329.94;1051273;28;1179;-66
2023/03/22 02:39:05;;;;;;;;;;;;;;;14.77;73.76;100330.94;1052829;28;1162;-66
2023/03/22 02:39:56;;;;;;;;;;;;;;;14.76;73.42;100329.25;1051947;28;714;-66
2023/03/22 02:40:46;;;;;;;;;;;;;;;14.78;73.74;100327.28;1055527;28;1242;-67
2023/03/22 02:41:36;;;;;;;;;;;;;;;14.78;73.47;100332.63;1051724;28;665;-67
2023/03/22 02:42:27;;;;;;;;;;;;;;;14.78;73.50;100326.41;1053113;28;685;-67
2023/03/22 02:43:17;;;;;;;;;;;;;;;14.77;73.52;100335.44;1049473;28;938;-67
2023/03/22 02:44:08;;;;;;;;;;;;;;;14.75;73.57;100324.00;1048334;28;626;-67
2023/03/22 02:44:59;;;;;;;;;;;;;;;14.74;73.36;100331.22;1047643;28;672;-66
2023/03/22 02:45:49;;;;;;;;;;;;;;;14.75;73.66;100324.88;1049580;28;1170;-67
2023/03/22 02:46:40;;;;;;;;;;;;;;;14.76;73.47;100331.06;1048353;28;734;-67
2023/03/22 02:47:30;;;;;;;;;;;;;;;14.75;73.69;100332.91;1052487;28;617;-67
2023/03/22 02:48:20;;;;;;;;;;;;;;;14.73;73.74;100324.16;1049478;28;708;-67
2023/03/22 02:49:11;;;;;;;;;;;;;;;14.73;73.61;100318.78;1052040;28;1221;-67
2023/03/22 02:50:01;;;;;;;;;;;;;;;14.72;73.74;100317.09;1049111;28;1032;-67
2023/03/22 02:50:52;;;;;;;;;;;;;;;14.72;73.63;100326.97;1052012;28;760;-67
2023/03/22 02:51:42;;;;;;;;;;;;;;;14.72;73.60;100317.09;1052887;28;1237;-67
2023/03/22 02:52:32;;;;;;;;;;;;;;;14.73;73.53;100321.47;1051757;28;725;-67
2023/03/22 02:53:23;;;;;;;;;;;;;;;14.74;73.56;100319.63;1052749;28;1114;-67
2023/03/22 02:54:14;;;;;;;;;;;;;;;14.74;73.51;100317.78;1051714;28;646;-67
2023/03/22 02:55:04;;;;;;;;;;;;;;;14.73;73.35;100317.94;1052899;28;1150;-67
2023/03/22 02:55:55;;;;;;;;;;;;;;;14.72;73.28;100311.72;1051165;28;721;-67
2023/03/22 02:56:45;;;;;;;;;;;;;;;14.73;73.63;100315.25;1052888;28;1166;-67
2023/03/22 02:57:35;;;;;;;;;;;;;;;14.71;73.68;100306.50;1048306;28;1691;-67
2023/03/22 02:58:26;;;;;;;;;;;;;;;14.70;73.35;100311.00;1049164;28;1186;-67
2023/03/22 02:59:16;;;;;;;;;;;;;;;14.67;73.95;100308.63;1051013;28;741;-67
2023/03/22 03:00:10;;;;;;;;;;;;;;;14.69;73.67;100305.81;1052726;28;1181;-67
2023/03/22 03:01:01;;;;;;;;;;;;;;;14.69;73.93;100306.63;1049116;28;1097;-67
2023/03/22 03:01:51;;;;;;;;;;;;;;;14.70;73.82;100308.31;1051506;28;622;-67
2023/03/22 03:02:42;;;;;;;;;;;;;;;14.71;73.61;100306.50;1050521;28;1158;-67
2023/03/22 03:03:36;;;;;;;;;;;;;;;14.69;73.54;100301.28;1051974;28;621;-67
2023/03/22 03:04:26;;;;;;;;;;;;;;;14.71;73.74;100307.34;1052212;28;1077;-67
2023/03/22 03:05:17;;;;;;;;;;;;;;;14.71;73.36;100310.03;1052850;28;637;-66
2023/03/22 03:06:08;;;;;;;;;;;;;;;14.70;73.63;100305.66;1053087;28;1197;-66
2023/03/22 03:06:59;;;;;;;;;;;;;;;14.71;73.71;100307.34;1052025;28;721;-67
2023/03/22 03:07:49;;;;;;;;;;;;;;;14.73;73.65;100307.22;1048834;28;695;-66
2023/03/22 03:08:40;;;;;;;;;;;;;;;14.72;74.00;100305.50;1048942;28;976;-66
2023/03/22 03:09:30;;;;;;;;;;;;;;;14.72;73.54;100308.19;1051708;28;708;-66
2023/03/22 03:10:21;;;;;;;;;;;;;;;14.72;73.84;100310.88;1050686;28;999;-66
2023/03/22 03:11:11;;;;;;;;;;;;;;;14.72;73.55;100305.50;1051089;28;684;-67
2023/03/22 03:12:02;;;;;;;;;;;;;;;14.70;73.54;100302.13;1051404;28;1426;-67
2023/03/22 03:12:52;;;;;;;;;;;;;;;14.70;73.75;100310.16;1048698;28;758;-66
2023/03/22 03:13:43;;;;;;;;;;;;;;;14.69;73.99;100309.31;1052816;28;1893;-67
2023/03/22 03:14:33;;;;;;;;;;;;;;;14.69;73.67;100303.94;1052949;28;1189;-66
2023/03/22 03:15:24;;;;;;;;;;;;;;;14.69;73.59;100312.00;1049747;28;693;-67
2023/03/22 03:16:16;;;;;;;;;;;;;;;14.70;73.77;100313.69;1051612;28;629;-66
2023/03/22 03:17:06;;;;;;;;;;;;;;;14.69;73.66;100309.31;1055230;28;1070;-67
2023/03/22 03:17:57;;;;;;;;;;;;;;;14.68;73.89;100310.34;1056554;28;598;-66
2023/03/22 03:18:47;;;;;;;;;;;;;;;14.69;73.32;100309.31;1052933;28;1055;-66
2023/03/22 03:19:38;;;;;;;;;;;;;;;14.69;73.69;100305.81;1056503;28;644;-67
2023/03/22 03:20:29;;;;;;;;;;;;;;;14.69;73.61;100312.00;1056095;28;1158;-66
2023/03/22 03:21:19;;;;;;;;;;;;;;;14.68;73.93;100304.97;1056068;28;674;-67
2023/03/22 03:22:09;;;;;;;;;;;;;;;14.68;73.66;100304.97;1054192;28;1098;-66
2023/03/22 03:23:00;;;;;;;;;;;;;;;14.68;73.48;100307.66;1056511;28;677;-66
2023/03/22 03:23:50;;;;;;;;;;;;;;;14.68;73.99;100310.34;1061141;28;1326;-67
2023/03/22 03:24:41;;;;;;;;;;;;;;;14.68;73.49;100304.97;1059552;28;757;-66
2023/03/22 03:25:31;;;;;;;;;;;;;;;14.69;73.42;100303.13;1055417;28;664;-66
2023/03/22 03:26:22;;;;;;;;;;;;;;;14.68;73.63;100304.97;1056438;28;630;-66
2023/03/22 03:27:12;;;;;;;;;;;;;;;14.69;73.93;100306.63;1058559;28;1832;-67
2023/03/22 03:28:02;;;;;;;;;;;;;;;14.67;73.74;100307.78;1058757;28;767;-66
2023/03/22 03:28:53;;;;;;;;;;;;;;;14.66;74.01;100312.31;1055271;28;669;-67
2023/03/22 03:29:43;;;;;;;;;;;;;;;14.66;73.61;100304.25;1056323;28;1043;-67
2023/03/22 03:30:34;;;;;;;;;;;;;;;14.68;73.75;100309.47;1058885;28;673;-67
2023/03/22 03:31:24;;;;;;;;;;;;;;;14.67;73.49;100303.28;1059839;28;702;-66
2023/03/22 03:32:15;;;;;;;;;;;;;;;14.66;73.57;100298.88;1059426;28;616;-66
2023/03/22 03:33:08;;;;;;;;;;;;;;;14.66;73.30;100301.56;1059243;28;1055;-66
2023/03/22 03:33:58;;;;;;;;;;;;;;;14.66;73.49;100304.25;1059507;28;1973;-67
2023/03/22 03:34:50;;;;;;;;;;;;;;;14.66;73.64;100295.34;1055146;28;641;-67
2023/03/22 03:35:40;;;;;;;;;;;;;;;14.66;73.94;100300.72;1059125;28;1110;-66
2023/03/22 03:36:31;;;;;;;;;;;;;;;14.65;73.69;100294.50;1056554;28;645;-67
2023/03/22 03:37:21;;;;;;;;;;;;;;;14.65;73.50;100305.25;1055900;28;629;-66
2023/03/22 03:38:12;;;;;;;;;;;;;;;14.64;73.66;100298.19;1057123;28;1118;-66
2023/03/22 03:39:03;;;;;;;;;;;;;;;14.65;73.99;100288.31;1059210;28;649;-66
2023/03/22 03:39:53;;;;;;;;;;;;;;;14.64;73.69;100286.59;1055474;28;666;-66
2023/03/22 03:40:44;;;;;;;;;;;;;;;14.65;73.70;100294.50;1059679;27;1330;-66
2023/03/22 03:41:34;;;;;;;;;;;;;;;14.65;73.52;100299.88;1058714;28;1405;-66
2023/03/22 03:42:25;;;;;;;;;;;;;;;14.66;73.45;100295.34;1057017;28;697;-66
2023/03/22 03:43:15;;;;;;;;;;;;;;;14.65;73.31;100288.31;1058842;28;1201;-66
2023/03/22 03:44:06;;;;;;;;;;;;;;;14.66;73.23;100292.69;1058178;28;905;-66
2023/03/22 03:44:56;;;;;;;;;;;;;;;14.66;73.87;100295.34;1060724;28;688;-66
2023/03/22 03:45:46;;;;;;;;;;;;;;;14.65;73.38;100291.84;1055668;28;748;-66
2023/03/22 03:46:37;;;;;;;;;;;;;;;14.65;73.48;100296.34;1052402;28;667;-66
2023/03/22 03:47:27;;;;;;;;;;;;;;;14.64;73.55;100292.81;1053690;28;758;-66
2023/03/22 03:48:18;;;;;;;;;;;;;;;14.65;73.48;100294.50;1052386;28;672;-66
2023/03/22 03:49:08;;;;;;;;;;;;;;;14.65;73.52;100297.19;1054609;28;1094;-66
2023/03/22 03:49:59;;;;;;;;;;;;;;;14.65;73.55;100307.06;1057388;28;636;-66
2023/03/22 03:50:49;;;;;;;;;;;;;;;14.66;73.56;100295.34;1052623;28;649;-66
2023/03/22 03:51:40;;;;;;;;;;;;;;;14.66;73.75;100290.00;1053095;28;696;-66
2023/03/22 03:52:30;;;;;;;;;;;;;;;14.66;73.50;100296.22;1055453;28;1090;-66
2023/03/22 03:53:21;;;;;;;;;;;;;;;14.66;73.37;100295.34;1053785;28;658;-66
2023/03/22 03:54:11;;;;;;;;;;;;;;;14.64;73.42;100297.34;1052225;28;633;-66
2023/03/22 03:55:01;;;;;;;;;;;;;;;14.64;73.44;100291.97;1056405;28;705;-66
2023/03/22 03:55:52;;;;;;;;;;;;;;;14.62;73.72;100300.16;1056773;28;671;-66
2023/03/22 03:56:42;;;;;;;;;;;;;;;14.63;73.58;100295.63;1056998;28;770;-66
2023/03/22 03:57:33;;;;;;;;;;;;;;;14.64;73.82;100297.34;1052934;28;685;-66
2023/03/22 03:58:23;;;;;;;;;;;;;;;14.63;73.41;100301.84;1055495;28;1035;-66
2023/03/22 03:59:14;;;;;;;;;;;;;;;14.63;73.62;100304.53;1055935;28;681;-66
2023/03/22 04:00:05;;;;;;;;;;;;;;;14.64;73.41;100294.66;1056978;28;1186;-66
2023/03/22 04:00:55;;;;;;;;;;;;;;;14.63;73.69;100290.28;1056807;28;664;-66
2023/03/22 04:01:51;;;;;;;;;;;;;;;14.63;73.33;100288.44;1056312;28;1024;-66
2023/03/22 04:02:41;;;;;;;;;;;;;;;14.63;73.57;100291.13;1057262;28;711;-66
2023/03/22 04:03:31;;;;;;;;;;;;;;;14.63;73.55;100296.47;1056815;28;711;-66
2023/03/22 04:04:25;;;;;;;;;;;;;;;14.63;73.87;100298.31;1056100;28;696;-66
2023/03/22 04:05:15;;;;;;;;;;;;;;;14.63;73.85;100295.63;1054644;28;1066;-66
2023/03/22 04:06:07;;;;;;;;;;;;;;;14.64;73.52;100291.97;1055949;28;686;-66
2023/03/22 04:06:58;;;;;;;;;;;;;;;14.64;73.49;100298.19;1056875;28;1244;-66
2023/03/22 04:07:48;;;;;;;;;;;;;;;14.65;73.39;100294.50;1056186;28;640;-66
2023/03/22 04:08:40;;;;;;;;;;;;;;;14.62;73.64;100292.09;1055911;28;646;-67
2023/03/22 04:09:30;;;;;;;;;;;;;;;14.62;73.81;100292.09;1056657;28;1173;-66
2023/03/22 04:10:21;;;;;;;;;;;;;;;14.62;73.64;100281.38;1056415;28;625;-66
2023/03/22 04:11:11;;;;;;;;;;;;;;;14.61;73.45;100284.19;1055362;28;708;-66
2023/03/22 04:12:02;;;;;;;;;;;;;;;14.62;73.62;100285.88;1052890;28;606;-66
2023/03/22 04:12:52;;;;;;;;;;;;;;;14.62;73.96;100281.38;1053999;28;1720;-66
2023/03/22 04:13:43;;;;;;;;;;;;;;;14.63;73.76;100282.22;1057644;28;1990;-66
2023/03/22 04:14:33;;;;;;;;;;;;;;;14.66;73.96;100279.28;1057524;28;1138;-66
2023/03/22 04:15:24;;;;;;;;;;;;;;;14.65;73.67;100290.97;1056388;28;609;-66
2023/03/22 04:16:14;;;;;;;;;;;;;;;14.65;73.57;100283.78;1057034;28;1011;-66
2023/03/22 04:17:04;;;;;;;;;;;;;;;14.65;73.32;100289.16;1055694;28;701;-66
2023/03/22 04:17:55;;;;;;;;;;;;;;;14.64;73.51;100287.44;1057515;28;1014;-66
2023/03/22 04:18:45;;;;;;;;;;;;;;;14.64;73.85;100292.81;1056955;28;707;-66
2023/03/22 04:19:36;;;;;;;;;;;;;;;14.65;73.24;100289.16;1052248;28;748;-66
2023/03/22 04:20:26;;;;;;;;;;;;;;;14.64;73.53;100287.44;1052404;28;618;-66
2023/03/22 04:21:17;;;;;;;;;;;;;;;14.64;73.58;100290.13;1055015;28;1075;-66
2023/03/22 04:22:13;;;;;;;;;;;;;;;14.63;73.40;100285.75;1056131;28;614;-66
2023/03/22 04:23:03;;;;;;;;;;;;;;;14.63;73.29;100275.03;1057172;28;942;-66
2023/03/22 04:23:54;;;;;;;;;;;;;;;14.61;73.56;100287.72;1055941;28;717;-66
2023/03/22 04:24:48;;;;;;;;;;;;;;;14.61;73.25;100281.50;1056314;28;1194;-66
2023/03/22 04:25:40;;;;;;;;;;;;;;;14.61;73.45;100287.72;1057104;28;658;-66
2023/03/22 04:26:31;;;;;;;;;;;;;;;14.63;73.79;100279.53;1055034;28;1638;-66
2023/03/22 04:27:21;;;;;;;;;;;;;;;14.62;73.33;100278.69;1054109;28;785;-66